createdAt,value
2019-05-18T00:00:14.825Z,1003.38
2019-05-18T00:01:16.229Z,1003.39
2019-05-18T00:02:17.631Z,1003.40
2019-05-18T00:03:19.020Z,1003.38
2019-05-18T00:04:20.404Z,1003.40
2019-05-18T00:05:21.811Z,1003.39
2019-05-18T00:06:23.213Z,1003.39
2019-05-18T00:07:24.599Z,1003.42
2019-05-18T00:08:25.992Z,1003.44
2019-05-18T00:09:27.380Z,1003.47
2019-05-18T00:10:28.786Z,1003.45
2019-05-18T00:11:30.179Z,1003.44
2019-05-18T00:12:31.568Z,1003.45
2019-05-18T00:13:32.957Z,1003.41
2019-05-18T00:14:34.353Z,1003.42
2019-05-18T00:15:35.741Z,1003.38
2019-05-18T00:16:37.132Z,1003.35
2019-05-18T00:17:38.520Z,1003.37
2019-05-18T00:18:39.924Z,1003.42
2019-05-18T00:19:41.332Z,1003.41
2019-05-18T00:20:42.718Z,1003.37
2019-05-18T00:21:44.114Z,1003.35
2019-05-18T00:22:45.517Z,1003.41
2019-05-18T00:23:46.909Z,1003.39
2019-05-18T00:24:48.303Z,1003.37
2019-05-18T00:25:49.708Z,1003.36
2019-05-18T00:26:51.118Z,1003.41
2019-05-18T00:27:52.509Z,1003.37
2019-05-18T00:28:53.911Z,1003.33
2019-05-18T00:29:55.307Z,1003.33
2019-05-18T00:30:56.696Z,1003.35
2019-05-18T00:31:58.090Z,1003.28
2019-05-18T00:32:59.485Z,1003.30
2019-05-18T00:34:00.877Z,1003.31
2019-05-18T00:35:02.265Z,1003.28
2019-05-18T00:36:03.676Z,1003.30
2019-05-18T00:37:05.066Z,1003.26
2019-05-18T00:38:06.465Z,1003.27
2019-05-18T00:39:07.863Z,1003.24
2019-05-18T00:40:09.256Z,1003.25
2019-05-18T00:41:10.654Z,1003.24
2019-05-18T00:42:12.053Z,1003.26
2019-05-18T00:43:13.452Z,1003.27
2019-05-18T00:44:14.848Z,1003.27
2019-05-18T00:45:16.249Z,1003.28
2019-05-18T00:46:17.651Z,1003.25
2019-05-18T00:47:19.057Z,1003.25
2019-05-18T00:48:20.407Z,1003.24
2019-05-18T00:49:21.798Z,1003.26
2019-05-18T00:50:23.192Z,1003.27
2019-05-18T00:51:24.597Z,1003.27
2019-05-18T00:52:25.988Z,1003.21
2019-05-18T00:53:27.376Z,1003.24
2019-05-18T00:54:28.774Z,1003.17
2019-05-18T00:55:30.175Z,1003.16
2019-05-18T00:56:31.570Z,1003.15
2019-05-18T00:57:32.963Z,1003.18
2019-05-18T00:58:34.365Z,1003.16
2019-05-18T00:59:35.765Z,1003.16
2019-05-18T01:00:37.173Z,1003.14
2019-05-18T01:01:38.521Z,1003.16
2019-05-18T01:02:39.911Z,1003.20
2019-05-18T01:03:41.303Z,1003.19
2019-05-18T01:04:42.703Z,1003.20
2019-05-18T01:05:44.101Z,1003.20
2019-05-18T01:06:45.714Z,1003.17
2019-05-18T01:07:46.873Z,1003.16
2019-05-18T01:08:48.261Z,1003.18
2019-05-18T01:09:49.662Z,1003.16
2019-05-18T01:10:51.064Z,1003.15
2019-05-18T01:11:52.460Z,1003.16
2019-05-18T01:12:53.849Z,1003.17
2019-05-18T01:13:55.235Z,1003.16
2019-05-18T01:14:56.629Z,1003.12
2019-05-18T01:15:58.022Z,1003.12
2019-05-18T01:16:59.423Z,1003.14
2019-05-18T01:18:02.413Z,1003.11
2019-05-18T01:19:02.180Z,1003.15
2019-05-18T01:20:03.575Z,1003.13
2019-05-18T01:21:04.972Z,1003.13
2019-05-18T01:22:06.369Z,1003.14
2019-05-18T01:23:07.788Z,1003.13
2019-05-18T01:24:09.156Z,1003.18
2019-05-18T01:25:10.556Z,1003.17
2019-05-18T01:26:11.951Z,1003.15
2019-05-18T01:27:13.345Z,1003.16
2019-05-18T01:28:14.743Z,1003.18
2019-05-18T01:29:16.133Z,1003.18
2019-05-18T01:30:17.537Z,1003.17
2019-05-18T01:31:18.929Z,1003.15
2019-05-18T01:32:20.328Z,1003.15
2019-05-18T01:33:21.726Z,1003.15
2019-05-18T01:34:23.125Z,1003.19
2019-05-18T01:35:24.555Z,1003.13
2019-05-18T01:36:25.945Z,1003.13
2019-05-18T01:37:27.338Z,1003.07
2019-05-18T01:38:28.740Z,1003.07
2019-05-18T01:39:30.126Z,1003.06
2019-05-18T01:40:31.516Z,1003.12
2019-05-18T01:41:32.908Z,1003.04
2019-05-18T01:42:34.301Z,1003.09
2019-05-18T01:43:35.702Z,1003.09
2019-05-18T01:44:37.105Z,1003.07
2019-05-18T01:45:38.504Z,1003.07
2019-05-18T01:46:39.909Z,1003.13
2019-05-18T01:47:41.317Z,1003.08
2019-05-18T01:48:42.699Z,1003.12
2019-05-18T01:49:44.125Z,1003.12
2019-05-18T01:50:45.524Z,1003.08
2019-05-18T01:51:46.913Z,1003.12
2019-05-18T01:52:48.322Z,1003.12
2019-05-18T01:53:49.703Z,1003.10
2019-05-18T01:54:51.101Z,1003.07
2019-05-18T01:55:52.495Z,1003.06
2019-05-18T01:56:53.883Z,1003.08
2019-05-18T01:57:55.279Z,1003.06
2019-05-18T01:58:56.663Z,1003.05
2019-05-18T01:59:58.053Z,1003.03
2019-05-18T02:00:59.446Z,1003.02
2019-05-18T02:02:00.840Z,1003.02
2019-05-18T02:03:02.244Z,1003.04
2019-05-18T02:04:03.668Z,1003.05
2019-05-18T02:05:05.038Z,1003.01
2019-05-18T02:06:06.428Z,1003.05
2019-05-18T02:07:07.828Z,1003.02
2019-05-18T02:08:09.220Z,1002.98
2019-05-18T02:09:10.615Z,1003.05
2019-05-18T02:10:12.025Z,1003.04
2019-05-18T02:11:13.427Z,1003.07
2019-05-18T02:12:14.826Z,1003.09
2019-05-18T02:13:16.212Z,1003.09
2019-05-18T02:14:17.600Z,1003.06
2019-05-18T02:15:18.986Z,1003.05
2019-05-18T02:16:20.384Z,1003.06
2019-05-18T02:17:21.775Z,1003.07
2019-05-18T02:18:29.006Z,1003.06
2019-05-18T02:19:24.928Z,1003.03
2019-05-18T02:20:25.879Z,1003.05
2019-05-18T02:21:27.284Z,1003.03
2019-05-18T02:22:28.673Z,1003.05
2019-05-18T02:23:30.077Z,1003.03
2019-05-18T02:24:31.461Z,1003.06
2019-05-18T02:25:32.854Z,1003.04
2019-05-18T02:26:34.254Z,1003.03
2019-05-18T02:27:35.652Z,1003.07
2019-05-18T02:28:37.049Z,1003.04
2019-05-18T02:29:38.445Z,1003.05
2019-05-18T02:30:39.847Z,1003.03
2019-05-18T02:31:41.230Z,1003.02
2019-05-18T02:32:42.624Z,1003.03
2019-05-18T02:33:44.005Z,1003.05
2019-05-18T02:34:45.400Z,1003.04
2019-05-18T02:35:46.815Z,1003.06
2019-05-18T02:36:48.191Z,1003.12
2019-05-18T02:37:49.586Z,1003.14
2019-05-18T02:38:50.988Z,1003.10
2019-05-18T02:39:52.384Z,1003.10
2019-05-18T02:40:53.768Z,1003.11
2019-05-18T02:41:55.172Z,1003.10
2019-05-18T02:42:56.567Z,1003.10
2019-05-18T02:43:57.960Z,1003.08
2019-05-18T02:44:59.359Z,1003.07
2019-05-18T02:46:00.772Z,1003.10
2019-05-18T02:47:02.153Z,1003.10
2019-05-18T02:48:03.548Z,1003.09
2019-05-18T02:49:04.954Z,1003.08
2019-05-18T02:50:06.375Z,1003.09
2019-05-18T02:51:11.132Z,1003.06
2019-05-18T02:52:09.113Z,1003.06
2019-05-18T02:53:10.495Z,1003.10
2019-05-18T02:54:11.908Z,1003.10
2019-05-18T02:55:13.309Z,1003.07
2019-05-18T02:56:14.717Z,1003.06
2019-05-18T02:57:16.126Z,1003.05
2019-05-18T02:58:17.522Z,1003.04
2019-05-18T02:59:18.917Z,1003.03
2019-05-18T03:00:20.303Z,1003.01
2019-05-18T03:01:21.700Z,1003.00
2019-05-18T03:02:23.098Z,1003.00
2019-05-18T03:03:24.490Z,1002.96
2019-05-18T03:04:25.865Z,1002.98
2019-05-18T03:05:27.269Z,1002.98
2019-05-18T03:06:28.667Z,1002.98
2019-05-18T03:07:30.062Z,1003.03
2019-05-18T03:08:31.446Z,1002.97
2019-05-18T03:09:32.857Z,1002.98
2019-05-18T03:10:34.255Z,1002.98
2019-05-18T03:11:35.650Z,1003.03
2019-05-18T03:12:37.094Z,1002.96
2019-05-18T03:13:38.446Z,1003.00
2019-05-18T03:14:39.845Z,1003.00
2019-05-18T03:15:41.239Z,1002.96
2019-05-18T03:16:42.642Z,1003.01
2019-05-18T03:17:44.039Z,1003.01
2019-05-18T03:18:45.499Z,1003.01
2019-05-18T03:19:46.801Z,1003.04
2019-05-18T03:20:48.200Z,1003.05
2019-05-18T03:21:49.595Z,1003.04
2019-05-18T03:22:50.987Z,1003.03
2019-05-18T03:23:52.385Z,1002.99
2019-05-18T03:24:53.788Z,1002.98
2019-05-18T03:25:55.214Z,1002.95
2019-05-18T03:26:56.594Z,1002.95
2019-05-18T03:27:57.984Z,1002.99
2019-05-18T03:28:59.373Z,1002.98
2019-05-18T03:30:00.797Z,1003.05
2019-05-18T03:31:02.165Z,1003.02
2019-05-18T03:32:03.552Z,1003.01
2019-05-18T03:33:04.948Z,1003.01
2019-05-18T03:34:06.333Z,1003.01
2019-05-18T03:35:07.730Z,1002.97
2019-05-18T03:36:09.138Z,1003.00
2019-05-18T03:37:10.537Z,1003.01
2019-05-18T03:38:11.935Z,1003.03
2019-05-18T03:39:13.342Z,1003.06
2019-05-18T03:40:14.738Z,1003.03
2019-05-18T03:41:16.133Z,1003.03
2019-05-18T03:42:17.534Z,1003.05
2019-05-18T03:43:18.932Z,1003.05
2019-05-18T03:44:20.320Z,1003.01
2019-05-18T03:45:21.723Z,1003.03
2019-05-18T03:46:24.087Z,1003.02
2019-05-18T03:47:24.486Z,1003.01
2019-05-18T03:48:25.896Z,1002.97
2019-05-18T03:49:27.840Z,1002.94
2019-05-18T03:50:28.687Z,1002.95
2019-05-18T03:51:30.086Z,1002.94
2019-05-18T03:52:31.478Z,1002.93
2019-05-18T03:53:32.889Z,1002.92
2019-05-18T03:54:34.297Z,1002.92
2019-05-18T03:55:35.706Z,1002.92
2019-05-18T03:56:37.097Z,1002.96
2019-05-18T03:57:38.494Z,1002.94
2019-05-18T03:58:39.883Z,1002.96
2019-05-18T03:59:41.274Z,1003.02
2019-05-18T04:00:42.674Z,1003.03
2019-05-18T04:01:44.075Z,1003.09
2019-05-18T04:02:45.477Z,1003.05
2019-05-18T04:03:46.871Z,1003.02
2019-05-18T04:04:48.274Z,1002.99
2019-05-18T04:05:49.662Z,1003.00
2019-05-18T04:06:51.050Z,1002.94
2019-05-18T04:07:52.456Z,1002.95
2019-05-18T04:08:53.861Z,1002.96
2019-05-18T04:09:55.249Z,1002.97
2019-05-18T04:10:56.654Z,1002.95
2019-05-18T04:11:58.045Z,1002.96
2019-05-18T04:12:59.454Z,1002.91
2019-05-18T04:14:00.859Z,1002.91
2019-05-18T04:15:02.268Z,1002.93
2019-05-18T04:16:03.666Z,1002.90
2019-05-18T04:17:05.065Z,1002.87
2019-05-18T04:18:06.463Z,1002.89
2019-05-18T04:19:07.853Z,1002.92
2019-05-18T04:20:09.278Z,1002.90
2019-05-18T04:21:10.677Z,1002.91
2019-05-18T04:22:12.067Z,1002.85
2019-05-18T04:23:13.467Z,1002.87
2019-05-18T04:24:14.867Z,1002.84
2019-05-18T04:25:16.260Z,1002.87
2019-05-18T04:26:17.662Z,1002.86
2019-05-18T04:27:19.075Z,1002.84
2019-05-18T04:28:20.460Z,1002.82
2019-05-18T04:29:21.867Z,1002.81
2019-05-18T04:30:23.252Z,1002.83
2019-05-18T04:31:24.657Z,1002.83
2019-05-18T04:32:26.057Z,1002.87
2019-05-18T04:33:27.462Z,1002.86
2019-05-18T04:34:28.866Z,1002.83
2019-05-18T04:35:30.255Z,1002.82
2019-05-18T04:36:31.660Z,1002.83
2019-05-18T04:37:33.823Z,1002.85
2019-05-18T04:38:35.220Z,1002.84
2019-05-18T04:39:36.615Z,1002.83
2019-05-18T04:40:38.018Z,1002.84
2019-05-18T04:41:39.423Z,1002.87
2019-05-18T04:42:40.824Z,1002.86
2019-05-18T04:43:42.231Z,1002.80
2019-05-18T04:44:43.622Z,1002.80
2019-05-18T04:45:45.027Z,1002.84
2019-05-18T04:46:46.432Z,1002.83
2019-05-18T04:47:48.666Z,1002.80
2019-05-18T04:48:49.216Z,1002.85
2019-05-18T04:50:04.328Z,1002.82
2019-05-18T04:50:51.960Z,1002.83
2019-05-18T04:51:53.365Z,1002.85
2019-05-18T04:52:54.769Z,1002.83
2019-05-18T04:53:56.161Z,1002.85
2019-05-18T04:54:57.581Z,1002.84
2019-05-18T04:55:58.973Z,1002.87
2019-05-18T04:57:00.881Z,1002.84
2019-05-18T04:58:02.288Z,1002.89
2019-05-18T04:59:03.672Z,1002.87
2019-05-18T05:00:05.085Z,1002.86
2019-05-18T05:01:06.478Z,1002.90
2019-05-18T05:02:07.916Z,1002.95
2019-05-18T05:03:09.314Z,1002.92
2019-05-18T05:04:10.721Z,1002.93
2019-05-18T05:05:12.127Z,1002.96
2019-05-18T05:06:13.536Z,1002.96
2019-05-18T05:07:14.931Z,1002.97
2019-05-18T05:08:16.349Z,1002.98
2019-05-18T05:09:17.776Z,1002.98
2019-05-18T05:10:19.165Z,1002.96
2019-05-18T05:11:20.564Z,1002.91
2019-05-18T05:12:21.976Z,1002.87
2019-05-18T05:13:23.371Z,1002.91
2019-05-18T05:14:24.772Z,1002.85
2019-05-18T05:15:26.179Z,1002.89
2019-05-18T05:16:27.581Z,1002.89
2019-05-18T05:17:28.997Z,1002.92
2019-05-18T05:18:30.406Z,1002.98
2019-05-18T05:19:31.807Z,1002.98
2019-05-18T05:20:33.212Z,1002.90
2019-05-18T05:21:34.631Z,1002.89
2019-05-18T05:22:36.039Z,1002.87
2019-05-18T05:23:37.442Z,1002.88
2019-05-18T05:24:38.840Z,1002.92
2019-05-18T05:25:40.252Z,1002.91
2019-05-18T05:26:41.641Z,1002.85
2019-05-18T05:27:43.041Z,1002.83
2019-05-18T05:28:44.442Z,1002.84
2019-05-18T05:29:45.849Z,1002.85
2019-05-18T05:30:47.253Z,1002.87
2019-05-18T05:31:48.654Z,1002.82
2019-05-18T05:32:50.069Z,1002.85
2019-05-18T05:33:51.482Z,1002.85
2019-05-18T05:34:52.870Z,1002.85
2019-05-18T05:35:54.286Z,1002.87
2019-05-18T05:36:55.697Z,1002.92
2019-05-18T05:37:57.102Z,1002.90
2019-05-18T05:38:58.508Z,1002.95
2019-05-18T05:39:59.913Z,1002.86
2019-05-18T05:41:01.326Z,1002.90
2019-05-18T05:42:02.741Z,1002.89
2019-05-18T05:43:04.151Z,1002.90
2019-05-18T05:44:05.555Z,1002.91
2019-05-18T05:45:06.964Z,1002.90
2019-05-18T05:46:08.368Z,1002.89
2019-05-18T05:47:09.781Z,1002.85
2019-05-18T05:48:11.175Z,1002.87
2019-05-18T05:49:12.589Z,1002.90
2019-05-18T05:50:13.983Z,1002.94
2019-05-18T05:51:15.396Z,1002.86
2019-05-18T05:52:16.797Z,1002.88
2019-05-18T05:53:18.216Z,1002.90
2019-05-18T05:54:19.618Z,1002.89
2019-05-18T05:55:21.037Z,1002.88
2019-05-18T05:56:22.465Z,1002.91
2019-05-18T05:57:23.879Z,1002.90
2019-05-18T05:58:25.288Z,1002.91
2019-05-18T05:59:26.694Z,1002.91
2019-05-18T06:00:28.107Z,1002.94
2019-05-18T06:01:29.501Z,1002.96
2019-05-18T06:02:30.908Z,1003.02
2019-05-18T06:03:32.318Z,1003.03
2019-05-18T06:04:33.710Z,1002.99
2019-05-18T06:05:35.126Z,1002.94
2019-05-18T06:06:36.545Z,1002.98
2019-05-18T06:07:37.944Z,1002.99
2019-05-18T06:08:39.368Z,1003.00
2019-05-18T06:09:40.761Z,1002.99
2019-05-18T06:10:42.151Z,1003.00
2019-05-18T06:11:43.595Z,1003.02
2019-05-18T06:12:44.996Z,1003.01
2019-05-18T06:13:46.415Z,1003.00
2019-05-18T06:14:47.813Z,1003.09
2019-05-18T06:15:49.223Z,1003.19
2019-05-18T06:16:50.627Z,1003.20
2019-05-18T06:17:52.028Z,1003.31
2019-05-18T06:18:53.449Z,1003.24
2019-05-18T06:19:54.859Z,1003.33
2019-05-18T06:20:56.260Z,1003.29
2019-05-18T06:21:57.660Z,1003.30
2019-05-18T06:22:59.066Z,1003.26
2019-05-18T06:24:00.479Z,1003.27
2019-05-18T06:25:02.393Z,1003.24
2019-05-18T06:26:03.430Z,1003.28
2019-05-18T06:27:04.858Z,1003.29
2019-05-18T06:28:06.266Z,1003.28
2019-05-18T06:29:07.674Z,1003.29
2019-05-18T06:30:09.090Z,1003.31
2019-05-18T06:31:10.512Z,1003.34
2019-05-18T06:32:11.924Z,1003.34
2019-05-18T06:33:13.335Z,1003.34
2019-05-18T06:34:14.753Z,1003.36
2019-05-18T06:35:16.179Z,1003.35
2019-05-18T06:36:17.607Z,1003.32
2019-05-18T06:37:19.029Z,1003.40
2019-05-18T06:38:20.451Z,1003.39
2019-05-18T06:39:21.889Z,1003.39
2019-05-18T06:40:23.327Z,1003.44
2019-05-18T06:41:24.745Z,1003.41
2019-05-18T06:42:26.167Z,1003.34
2019-05-18T06:43:27.589Z,1003.38
2019-05-18T06:44:29.008Z,1003.42
2019-05-18T06:45:30.439Z,1003.45
2019-05-18T06:46:31.850Z,1003.41
2019-05-18T06:47:33.273Z,1003.40
2019-05-18T06:48:34.697Z,1003.39
2019-05-18T06:49:36.122Z,1003.42
2019-05-18T06:50:37.549Z,1003.42
2019-05-18T06:51:38.962Z,1003.44
2019-05-18T06:52:40.383Z,1003.43
2019-05-18T06:53:41.810Z,1003.40
2019-05-18T06:54:43.253Z,1003.42
2019-05-18T06:55:44.658Z,1003.47
2019-05-18T06:56:46.100Z,1003.46
2019-05-18T06:57:47.538Z,1003.43
2019-05-18T06:58:48.964Z,1003.45
2019-05-18T06:59:50.383Z,1003.50
2019-05-18T07:00:51.815Z,1003.44
2019-05-18T07:01:53.247Z,1003.45
2019-05-18T07:02:54.666Z,1003.46
2019-05-18T07:03:56.083Z,1003.48
2019-05-18T07:04:57.509Z,1003.50
2019-05-18T07:05:58.932Z,1003.46
2019-05-18T07:07:00.353Z,1003.51
2019-05-18T07:08:01.787Z,1003.50
2019-05-18T07:09:03.252Z,1003.50
2019-05-18T07:10:04.691Z,1003.48
2019-05-18T07:11:06.107Z,1003.40
2019-05-18T07:12:07.537Z,1003.44
2019-05-18T07:13:08.968Z,1003.43
2019-05-18T07:14:23.601Z,1003.47
2019-05-18T07:15:11.798Z,1003.47
2019-05-18T07:16:13.248Z,1003.51
2019-05-18T07:17:14.684Z,1003.51
2019-05-18T07:18:16.089Z,1003.52
2019-05-18T07:19:17.526Z,1003.52
2019-05-18T07:20:18.944Z,1003.48
2019-05-18T07:21:22.247Z,1003.53
2019-05-18T07:22:21.752Z,1003.52
2019-05-18T07:23:23.172Z,1003.46
2019-05-18T07:24:24.588Z,1003.50
2019-05-18T07:25:26.019Z,1003.52
2019-05-18T07:26:27.450Z,1003.48
2019-05-18T07:27:28.900Z,1003.49
2019-05-18T07:28:30.348Z,1003.40
2019-05-18T07:29:31.774Z,1003.40
2019-05-18T07:30:33.194Z,1003.40
2019-05-18T07:31:34.615Z,1003.40
2019-05-18T07:32:36.033Z,1003.45
2019-05-18T07:33:37.505Z,1003.42
2019-05-18T07:34:38.873Z,1003.33
2019-05-18T07:35:40.292Z,1003.39
2019-05-18T07:36:41.713Z,1003.34
2019-05-18T07:37:43.136Z,1003.35
2019-05-18T07:38:44.559Z,1003.37
2019-05-18T07:39:45.989Z,1003.30
2019-05-18T07:40:47.417Z,1003.26
2019-05-18T07:41:48.829Z,1003.30
2019-05-18T07:42:50.252Z,1003.30
2019-05-18T07:43:51.673Z,1003.28
2019-05-18T07:44:53.111Z,1003.23
2019-05-18T07:45:54.533Z,1003.24
2019-05-18T07:46:55.976Z,1003.33
2019-05-18T07:47:57.416Z,1003.24
2019-05-18T07:48:58.826Z,1003.25
2019-05-18T07:50:00.257Z,1003.28
2019-05-18T07:51:01.676Z,1003.33
2019-05-18T07:52:03.134Z,1003.22
2019-05-18T07:53:04.551Z,1003.28
2019-05-18T07:54:05.976Z,1003.30
2019-05-18T07:55:07.549Z,1003.30
2019-05-18T07:56:08.874Z,1003.30
2019-05-18T07:57:10.294Z,1003.29
2019-05-18T07:58:11.727Z,1003.28
2019-05-18T07:59:13.142Z,1003.35
2019-05-18T08:00:14.584Z,1003.34
2019-05-18T08:01:16.016Z,1003.33
2019-05-18T08:02:17.431Z,1003.40
2019-05-18T08:03:18.872Z,1003.36
2019-05-18T08:04:20.303Z,1003.34
2019-05-18T08:05:21.743Z,1003.37
2019-05-18T08:06:23.173Z,1003.36
2019-05-18T08:07:24.596Z,1003.30
2019-05-18T08:08:26.026Z,1003.33
2019-05-18T08:09:27.469Z,1003.35
2019-05-18T08:10:28.900Z,1003.34
2019-05-18T08:11:30.369Z,1003.36
2019-05-18T08:12:31.804Z,1003.38
2019-05-18T08:13:33.233Z,1003.35
2019-05-18T08:14:34.679Z,1003.32
2019-05-18T08:15:36.117Z,1003.31
2019-05-18T08:16:37.550Z,1003.36
2019-05-18T08:17:38.962Z,1003.31
2019-05-18T08:18:40.386Z,1003.33
2019-05-18T08:19:41.801Z,1003.35
2019-05-18T08:20:43.221Z,1003.36
2019-05-18T08:21:52.686Z,1003.28
2019-05-18T08:22:46.035Z,1003.28
2019-05-18T08:23:47.490Z,1003.36
2019-05-18T08:24:48.914Z,1003.15
2019-05-18T08:25:50.342Z,1002.94
2019-05-18T08:26:51.764Z,1002.89
2019-05-18T08:27:53.186Z,1002.93
2019-05-18T08:28:54.603Z,1002.93
2019-05-18T08:29:56.028Z,1002.86
2019-05-18T08:30:57.466Z,1002.91
2019-05-18T08:31:58.881Z,1002.93
2019-05-18T08:33:00.303Z,1002.89
2019-05-18T08:34:01.713Z,1002.83
2019-05-18T08:35:03.145Z,1002.83
2019-05-18T08:36:04.569Z,1002.99
2019-05-18T08:37:05.983Z,1002.91
2019-05-18T08:38:07.410Z,1002.85
2019-05-18T08:39:08.845Z,1002.87
2019-05-18T08:40:10.251Z,1002.89
2019-05-18T08:41:11.669Z,1002.71
2019-05-18T08:42:13.075Z,1002.76
2019-05-18T08:43:14.500Z,1002.67
2019-05-18T08:44:15.916Z,1002.73
2019-05-18T08:45:17.332Z,1002.75
2019-05-18T08:46:18.799Z,1002.76
2019-05-18T08:47:20.234Z,1002.67
2019-05-18T08:48:21.649Z,1002.63
2019-05-18T08:49:23.068Z,1002.72
2019-05-18T08:50:24.481Z,1002.63
2019-05-18T08:51:25.900Z,1002.78
2019-05-18T08:52:27.310Z,1002.61
2019-05-18T08:53:28.718Z,1002.61
2019-05-18T08:54:30.130Z,1002.58
2019-05-18T08:55:31.552Z,1002.57
2019-05-18T08:56:32.982Z,1002.57
2019-05-18T08:57:34.418Z,1002.55
2019-05-18T08:58:35.836Z,1002.56
2019-05-18T08:59:39.804Z,1002.55
2019-05-18T09:00:38.603Z,1002.61
2019-05-18T09:01:40.021Z,1002.53
2019-05-18T09:02:41.445Z,1002.53
2019-05-18T09:03:42.889Z,1002.52
2019-05-18T09:04:44.297Z,1002.60
2019-05-18T09:05:45.708Z,1002.55
2019-05-18T09:06:47.111Z,1002.53
2019-05-18T09:07:48.523Z,1002.63
2019-05-18T09:08:49.949Z,1002.55
2019-05-18T09:09:51.361Z,1002.49
2019-05-18T09:10:52.775Z,1002.52
2019-05-18T09:11:54.216Z,1002.49
2019-05-18T09:12:55.629Z,1002.55
2019-05-18T09:13:57.047Z,1002.47
2019-05-18T09:14:58.453Z,1002.49
2019-05-18T09:15:59.898Z,1002.63
2019-05-18T09:17:01.290Z,1002.58
2019-05-18T09:18:04.851Z,1002.59
2019-05-18T09:19:04.095Z,1002.66
2019-05-18T09:20:05.550Z,1002.57
2019-05-18T09:21:06.949Z,1002.48
2019-05-18T09:22:22.285Z,1002.51
2019-05-18T09:23:09.766Z,1002.40
2019-05-18T09:24:11.167Z,1002.47
2019-05-18T09:25:12.573Z,1002.48
2019-05-18T09:26:13.993Z,1002.46
2019-05-18T09:27:15.405Z,1002.46
2019-05-18T09:28:16.814Z,1002.37
2019-05-18T09:29:18.244Z,1002.39
2019-05-18T09:30:19.647Z,1002.38
2019-05-18T09:31:21.079Z,1002.35
2019-05-18T09:32:22.533Z,1002.25
2019-05-18T09:33:23.943Z,1002.31
2019-05-18T09:34:25.365Z,1002.34
2019-05-18T09:35:26.774Z,1002.22
2019-05-18T09:36:28.196Z,1002.32
2019-05-18T09:37:29.609Z,1002.28
2019-05-18T09:38:33.155Z,1002.17
2019-05-18T09:39:32.416Z,1002.19
2019-05-18T09:40:33.829Z,1002.22
2019-05-18T09:41:35.279Z,1002.30
2019-05-18T09:42:36.667Z,1002.33
2019-05-18T09:43:38.082Z,1002.34
2019-05-18T09:44:39.491Z,1002.19
2019-05-18T09:45:40.914Z,1002.32
2019-05-18T09:46:42.311Z,1002.28
2019-05-18T09:47:43.737Z,1002.27
2019-05-18T09:48:45.151Z,1002.26
2019-05-18T09:49:46.555Z,1002.23
2019-05-18T09:50:47.960Z,1002.21
2019-05-18T09:51:49.402Z,1002.25
2019-05-18T09:52:50.772Z,1002.25
2019-05-18T09:53:52.218Z,1002.23
2019-05-18T09:54:53.591Z,1002.27
2019-05-18T09:55:54.993Z,1002.23
2019-05-18T09:56:56.413Z,1002.20
2019-05-18T09:57:57.829Z,1002.14
2019-05-18T09:58:59.255Z,1002.23
2019-05-18T10:00:00.663Z,1002.20
2019-05-18T10:01:02.075Z,1002.17
2019-05-18T10:02:03.480Z,1002.28
2019-05-18T10:03:04.908Z,1002.12
2019-05-18T10:04:06.309Z,1002.09
2019-05-18T10:05:07.706Z,1002.18
2019-05-18T10:06:09.130Z,1002.08
2019-05-18T10:07:10.522Z,1002.08
2019-05-18T10:08:11.940Z,1002.08
2019-05-18T10:09:13.350Z,1002.07
2019-05-18T10:10:14.750Z,1002.04
2019-05-18T10:11:16.166Z,1002.03
2019-05-18T10:12:17.578Z,1002.02
2019-05-18T10:13:18.998Z,1001.94
2019-05-18T10:14:20.406Z,1001.98
2019-05-18T10:15:21.810Z,1002.03
2019-05-18T10:16:23.218Z,1001.92
2019-05-18T10:17:24.616Z,1002.00
2019-05-18T10:18:26.015Z,1002.02
2019-05-18T10:19:27.438Z,1001.98
2019-05-18T10:20:28.846Z,1001.89
2019-05-18T10:21:30.357Z,1001.93
2019-05-18T10:22:31.809Z,1001.95
2019-05-18T10:23:33.222Z,1001.94
2019-05-18T10:24:34.639Z,1001.98
2019-05-18T10:25:36.052Z,1001.97
2019-05-18T10:26:37.456Z,1001.97
2019-05-18T10:27:38.869Z,1001.94
2019-05-18T10:28:40.275Z,1001.89
2019-05-18T10:29:41.689Z,1001.88
2019-05-18T10:30:43.120Z,1001.88
2019-05-18T10:31:44.538Z,1001.84
2019-05-18T10:32:45.953Z,1001.87
2019-05-18T10:33:47.370Z,1001.85
2019-05-18T10:34:48.774Z,1001.81
2019-05-18T10:35:50.178Z,1001.76
2019-05-18T10:36:51.628Z,1001.81
2019-05-18T10:37:53.023Z,1001.74
2019-05-18T10:38:54.460Z,1001.85
2019-05-18T10:39:55.870Z,1001.78
2019-05-18T10:40:57.321Z,1001.76
2019-05-18T10:41:58.770Z,1001.80
2019-05-18T10:43:00.222Z,1001.80
2019-05-18T10:44:01.631Z,1001.73
2019-05-18T10:45:03.047Z,1001.71
2019-05-18T10:46:04.474Z,1001.75
2019-05-18T10:47:05.960Z,1001.76
2019-05-18T10:48:07.561Z,1001.83
2019-05-18T10:49:08.990Z,1001.67
2019-05-18T10:50:10.417Z,1001.71
2019-05-18T10:51:12.028Z,1001.72
2019-05-18T10:52:13.472Z,1001.69
2019-05-18T10:53:27.795Z,1001.68
2019-05-18T10:54:16.415Z,1001.68
2019-05-18T10:55:17.847Z,1001.62
2019-05-18T10:56:19.367Z,1001.68
2019-05-18T10:57:20.902Z,1001.55
2019-05-18T10:58:22.298Z,1001.57
2019-05-18T10:59:23.726Z,1001.60
2019-05-18T11:00:25.128Z,1001.50
2019-05-18T11:01:26.547Z,1001.52
2019-05-18T11:02:27.958Z,1001.54
2019-05-18T11:03:29.392Z,1001.48
2019-05-18T11:04:30.975Z,1001.47
2019-05-18T11:05:32.188Z,1001.48
2019-05-18T11:06:33.620Z,1001.48
2019-05-18T11:07:35.041Z,1001.52
2019-05-18T11:08:38.345Z,1001.58
2019-05-18T11:09:37.844Z,1001.58
2019-05-18T11:10:39.251Z,1001.59
2019-05-18T11:11:40.659Z,1001.53
2019-05-18T11:12:42.066Z,1001.57
2019-05-18T11:13:43.493Z,1001.53
2019-05-18T11:14:44.904Z,1001.59
2019-05-18T11:15:46.312Z,1001.52
2019-05-18T11:16:47.725Z,1001.58
2019-05-18T11:17:49.140Z,1001.55
2019-05-18T11:18:50.546Z,1001.52
2019-05-18T11:19:51.957Z,1001.56
2019-05-18T11:20:53.392Z,1001.60
2019-05-18T11:21:54.787Z,1001.69
2019-05-18T11:22:56.211Z,1001.61
2019-05-18T11:23:57.656Z,1001.66
2019-05-18T11:24:59.071Z,1001.71
2019-05-18T11:26:00.481Z,1001.59
2019-05-18T11:27:01.889Z,1001.61
2019-05-18T11:28:03.309Z,1001.65
2019-05-18T11:29:04.728Z,1001.71
2019-05-18T11:30:06.432Z,1001.71
2019-05-18T11:31:07.776Z,1001.53
2019-05-18T11:32:09.185Z,1001.52
2019-05-18T11:33:11.330Z,1001.58
2019-05-18T11:34:12.743Z,1001.47
2019-05-18T11:35:14.204Z,1001.56
2019-05-18T11:36:15.613Z,1001.55
2019-05-18T11:37:17.019Z,1001.51
2019-05-18T11:38:18.436Z,1001.67
2019-05-18T11:39:19.847Z,1001.62
2019-05-18T11:40:21.343Z,1001.49
2019-05-18T11:41:22.789Z,1001.39
2019-05-18T11:42:24.287Z,1001.41
2019-05-18T11:43:25.712Z,1001.46
2019-05-18T11:44:27.157Z,1001.41
2019-05-18T11:45:28.635Z,1001.44
2019-05-18T11:46:30.047Z,1001.48
2019-05-18T11:47:31.581Z,1001.43
2019-05-18T11:48:33.003Z,1001.45
2019-05-18T11:49:34.429Z,1001.57
2019-05-18T11:50:35.880Z,1001.60
2019-05-18T11:51:37.502Z,1001.60
2019-05-18T11:52:39.037Z,1001.49
2019-05-18T11:53:40.488Z,1001.32
2019-05-18T11:54:41.909Z,1001.51
2019-05-18T11:55:43.323Z,1001.45
2019-05-18T11:56:44.759Z,1001.53
2019-05-18T11:57:46.167Z,1001.54
2019-05-18T11:58:47.581Z,1001.36
2019-05-18T11:59:48.992Z,1001.33
2019-05-18T12:00:50.414Z,1001.30
2019-05-18T12:01:51.829Z,1001.33
2019-05-18T12:02:53.250Z,1001.36
2019-05-18T12:03:54.664Z,1001.41
2019-05-18T12:04:56.070Z,1001.41
2019-05-18T12:05:57.485Z,1001.50
2019-05-18T12:06:58.916Z,1001.39
2019-05-18T12:08:00.320Z,1001.50
2019-05-18T12:09:01.742Z,1001.48
2019-05-18T12:10:03.237Z,1001.48
2019-05-18T12:11:04.631Z,1001.20
2019-05-18T12:12:06.064Z,1001.35
2019-05-18T12:13:07.485Z,1001.31
2019-05-18T12:14:08.888Z,1001.36
2019-05-18T12:15:10.310Z,1001.16
2019-05-18T12:16:11.716Z,1001.27
2019-05-18T12:17:13.130Z,1001.15
2019-05-18T12:18:14.545Z,1001.19
2019-05-18T12:19:15.962Z,1001.27
2019-05-18T12:20:17.379Z,1001.17
2019-05-18T12:21:18.781Z,1001.25
2019-05-18T12:22:20.195Z,1001.17